Flight Track Log - Related Links

Times and Time Zones

All times are in EST time to prevent confusion due to time zone crossing. See the DAL10 flight status page for this flight to view local times or setup timezone preferences in your user account.

Time Position Orientation Groundspeed Altitude Reporting Facility
EST Latitude Longitude Course Direction KTS MPH feet Rate Location/Type
Fri 07:41:29 PM 38.8131 -84.9003 191° South 413 475 12,200  Level Indianapolis Center
Fri 07:42:29 PM 38.7064 -84.9275 192° South 425 489 14,300 2,300 Climbing Indianapolis Center
Fri 07:43:29 PM 38.6039 -84.9547 211° Southwest 392 451 16,800 2,150 Climbing Indianapolis Center
Fri 07:44:29 PM 38.5239 -85.0169 217° Southwest 375 432 18,600 1,950 Climbing Indianapolis Center
Fri 07:45:29 PM 38.4375 -85.1000 217° Southwest 382 440 20,700 1,900 Climbing Indianapolis Center
Fri 07:46:29 PM 38.3531 -85.1806 216° Southwest 389 448 22,400 2,100 Climbing Indianapolis Center
Fri 07:47:29 PM 38.2642 -85.2631 210° Southwest 395 455 24,900 1,850 Climbing Indianapolis Center
Fri 07:48:29 PM 38.1756 -85.3272 196° South 384 442 26,100 1,150 Climbing Indianapolis Center
Fri 07:49:29 PM 38.0644 -85.3667 203° Southwest 384 442 27,200 1,550 Climbing Indianapolis Center
Fri 07:50:29 PM 37.9633 -85.4222 206° Southwest 400 460 29,200 1,850 Climbing Indianapolis Center
Fri 07:51:29 PM 37.8667 -85.4828 207° Southwest 393 452 30,900 1,450 Climbing Indianapolis Center
Fri 07:52:29 PM 37.7675 -85.5458 218° Southwest 376 433 32,100 1,050 Climbing Indianapolis Center
Fri 07:53:29 PM 37.6889 -85.6225 219° Southwest 367 422 33,000 450 Climbing Indianapolis Center
Fri 07:54:29 PM 37.6125 -85.7017 222° Southwest 361 415 33,000  Level Indianapolis Center
Fri 07:56:25 PM 37.4772 -85.8544 218° Southwest 341 392 33,000  Level Memphis Center
Fri 07:57:25 PM 37.4008 -85.9292 199° South 349 402 33,000  Level Memphis Center
Fri 07:58:25 PM 37.3003 -85.9739 192° South 373 429 33,000  Level Memphis Center
Fri 07:59:25 PM 37.1931 -86.0033 191° South 392 451 33,000  Level Memphis Center
Fri 08:00:25 PM 37.0836 -86.0300 191° South 399 459 33,000  Level Memphis Center
Fri 08:01:25 PM 36.9658 -86.0597 191° South 399 459 33,000  Level Memphis Center
Fri 08:02:26 PM 36.8583 -86.0864 192° South 399 459 33,000 -100 Level Memphis Center
Fri 08:03:25 PM 36.7489 -86.1156 191° South 405 466 32,800 -908 Descending Memphis Center
Fri 08:04:25 PM 36.6414 -86.1417 192° South 405 466 31,200 -900 Descending Memphis Center
Fri 08:05:25 PM 36.5319 -86.1708 191° South 410 472 31,000 -100 Descending Memphis Center
Fri 08:06:25 PM 36.4222 -86.1969 192° South 410 472 31,000  Level Memphis Center
Fri 08:07:25 PM 36.3108 -86.2258 192° South 410 472 31,000  Level Memphis Center
Fri 08:08:25 PM 36.2114 -86.2517 191° South 410 472 31,000  Level Memphis Center
Fri 08:09:26 PM 36.1019 -86.2778 192° South 410 472 31,000  Level Memphis Center
Fri 08:10:25 PM 35.9903 -86.3064 161° South 410 472 31,000  Level Memphis Center
Fri 08:13:32 PM 35.6125 -86.1486 154° Southeast 449 517 31,000  Level Atlanta Center
Fri 08:14:32 PM 35.4947 -86.0794 155° Southeast 461 531 31,000 -393 Level Atlanta Center
Fri 08:15:34 PM 35.3894 -86.0183 154° Southeast 461 531 30,200 -955 Descending Atlanta Center
Fri 08:16:44 PM 35.2364 -85.9281 154° Southeast 468 539 28,900 -923 Descending Atlanta Center
Fri 08:17:44 PM 35.1206 -85.8594 157° South 463 533 28,200 -650 Descending Atlanta Center
Fri 08:18:44 PM 35.0047 -85.7986 180° South 463 533 27,600 -600 Descending Atlanta Center
Fri 08:19:44 PM 34.8900 -85.7986 183° South 416 479 27,000 -600 Descending Atlanta Center
Fri 08:20:44 PM 34.7750 -85.8064 164° South 416 479 26,400 -550 Descending Atlanta Center
Fri 08:21:44 PM 34.6586 -85.7661 138° Southeast 422 486 25,900 -750 Descending Atlanta Center
Fri 08:22:44 PM 34.5703 -85.6683 132° Southeast 416 479 24,900 -1,500 Descending Atlanta Center
Fri 08:23:44 PM 34.4922 -85.5636 132° Southeast 416 479 22,900 -2,000 Descending Atlanta Center
Fri 08:24:44 PM 34.4183 -85.4642 130° Southeast 405 466 20,900 -1,950 Descending Atlanta Center
Fri 08:25:44 PM 34.3528 -85.3697 133° Southeast 382 440 19,000 -1,650 Descending Atlanta Center
Fri 08:26:44 PM 34.2869 -85.2833 131° Southeast 361 415 17,600 -1,450 Descending Atlanta Center
Fri 08:27:44 PM 34.2231 -85.1944 134° Southeast 350 403 16,100 -1,500 Descending Atlanta Center
Fri 08:28:44 PM 34.1569 -85.1108 133° Southeast 344 396 14,600 -1,500 Descending Atlanta Center
Fri 08:29:44 PM 34.0969 -85.0322 142° Southeast 332 382 13,100 -1,150 Descending Atlanta Center
Fri 08:30:44 PM 34.0308 -84.9689 155° Southeast 317 365 12,300 -1,150 Descending Atlanta Center
Fri 08:31:44 PM 33.9642 -84.9306 156° South 302 348 10,800 -1,150 Descending Atlanta Center
Fri 08:32:44 PM 33.8914 -84.8922 178° South 291 335 10,000 -900 Descending Atlanta Center
Fri 08:33:44 PM 33.8122 -84.8889 181° South 281 323 9,000 -1,100 Descending Atlanta Center
Fri 08:34:44 PM 33.7350 -84.8906 183° South 276 318 7,800 -1,050 Descending Atlanta Center
Fri 08:35:44 PM 33.6619 -84.8950 127° Southeast 271 312 6,900 -490 Descending Atlanta Center
Fri 08:36:22 PM 33.6333 -84.8500 90° East 238 274 7,000 -888 Climbing Atlanta TRACON
Fri 08:41:22 PM 33.6333 -84.5000 90° East 155 178 1,900 -1,020 Descending Atlanta TRACON

Login

Don't have an account? Register now (free) for customized features, flight alerts, and more!